createdAt,value
2019-04-03T00:00:24.532Z,24.52
2019-04-03T00:03:04.297Z,22.50
2019-04-03T00:05:44.536Z,22.37
2019-04-03T00:08:24.291Z,26.12
2019-04-03T00:11:02.737Z,26.30
2019-04-03T00:13:42.254Z,24.32
2019-04-03T00:16:22.989Z,26.10
2019-04-03T00:19:02.765Z,29.57
2019-04-03T00:21:43.866Z,29.77
2019-04-03T00:24:22.533Z,29.77
2019-04-03T00:27:02.573Z,26.90
2019-04-03T00:29:40.107Z,27.80
2019-04-03T00:32:19.693Z,27.35
2019-04-03T00:34:58.386Z,25.77
2019-04-03T00:37:37.526Z,26.20
2019-04-03T00:40:16.228Z,23.73
2019-04-03T00:42:54.872Z,26.37
2019-04-03T00:45:32.745Z,24.32
2019-04-03T00:48:11.726Z,23.30
2019-04-03T00:50:50.899Z,22.67
2019-04-03T00:53:28.781Z,26.10
2019-04-03T00:56:07.507Z,24.35
2019-04-03T00:58:48.133Z,28.10
2019-04-03T01:01:26.525Z,24.55
2019-04-03T01:04:05.046Z,22.10
2019-04-03T01:06:43.735Z,29.87
2019-04-03T01:09:23.537Z,27.25
2019-04-03T01:12:01.524Z,26.25
2019-04-03T01:14:39.500Z,24.57
2019-04-03T01:17:17.476Z,24.67
2019-04-03T01:19:57.129Z,22.95
2019-04-03T01:22:37.341Z,22.15
2019-04-03T01:25:15.761Z,20.97
2019-04-03T01:27:54.596Z,23.47
2019-04-03T01:30:33.357Z,22.07
2019-04-03T01:33:11.634Z,19.70
2019-04-03T01:35:49.963Z,19.70
2019-04-03T01:38:28.079Z,18.90
2019-04-03T01:41:07.179Z,25.05
2019-04-03T01:43:45.625Z,21.35
2019-04-03T01:46:24.326Z,18.20
2019-04-03T01:49:02.394Z,16.52
2019-04-03T01:51:41.700Z,16.50
2019-04-03T01:54:21.976Z,14.98
2019-04-03T01:57:03.095Z,14.18
2019-04-03T01:59:42.068Z,13.75
2019-04-03T02:02:20.525Z,12.63
2019-04-03T02:04:58.720Z,13.48
2019-04-03T02:07:39.462Z,13.25
2019-04-03T02:10:22.269Z,15.15
2019-04-03T02:13:01.139Z,13.45
2019-04-03T02:15:39.469Z,11.78
2019-04-03T02:18:17.893Z,11.75
2019-04-03T02:20:57.761Z,11.00
2019-04-03T02:23:37.892Z,10.55
2019-04-03T02:26:16.748Z,11.33
2019-04-03T02:28:55.189Z,10.03
2019-04-03T02:31:33.259Z,9.60
2019-04-03T02:34:12.113Z,11.10
2019-04-03T02:36:53.330Z,12.13
2019-04-03T02:39:32.148Z,11.20
2019-04-03T02:42:21.678Z,10.38
2019-04-03T02:45:00.809Z,9.60
2019-04-03T02:47:40.297Z,9.93
2019-04-03T02:50:23.332Z,9.38
2019-04-03T02:53:01.345Z,9.80
2019-04-03T02:55:41.003Z,9.53
2019-04-03T02:58:22.240Z,10.08
2019-04-03T03:01:00.486Z,9.00
2019-04-03T03:03:39.291Z,8.30
2019-04-03T03:06:19.415Z,7.00
2019-04-03T03:08:57.820Z,7.33
2019-04-03T03:11:37.114Z,7.60
2019-04-03T03:14:16.048Z,7.87
2019-04-03T03:16:55.598Z,8.20
2019-04-03T03:19:34.155Z,8.63
2019-04-03T03:22:17.200Z,7.37
2019-04-03T03:24:54.379Z,8.15
2019-04-03T03:27:34.866Z,7.20
2019-04-03T03:30:33.245Z,7.60
2019-04-03T03:33:19.408Z,7.17
2019-04-03T03:35:40.363Z,7.80
2019-04-03T03:38:14.033Z,7.17
2019-04-03T03:40:51.862Z,7.40
2019-04-03T03:43:30.521Z,7.30
2019-04-03T03:46:09.065Z,7.97
2019-04-03T03:48:48.135Z,7.90
2019-04-03T03:51:30.092Z,8.28
2019-04-03T03:54:06.564Z,8.58
2019-04-03T03:56:46.079Z,8.58
2019-04-03T03:59:27.419Z,9.60
2019-04-03T04:02:06.568Z,12.10
2019-04-03T04:04:48.134Z,10.82
2019-04-03T04:07:25.075Z,14.73
2019-04-03T04:10:04.830Z,15.65
2019-04-03T04:12:43.068Z,14.87
2019-04-03T04:15:22.253Z,19.48
2019-04-03T04:18:00.585Z,19.75
2019-04-03T04:20:40.470Z,22.17
2019-04-03T04:23:18.640Z,22.65
2019-04-03T04:25:58.984Z,22.22
2019-04-03T04:28:40.207Z,22.82
2019-04-03T04:31:19.271Z,18.67
2019-04-03T04:33:58.799Z,15.40
2019-04-03T04:36:38.152Z,14.53
2019-04-03T04:39:16.129Z,14.53
2019-04-03T04:41:55.152Z,15.60
2019-04-03T04:44:33.086Z,15.28
2019-04-03T04:47:14.570Z,15.20
2019-04-03T04:49:51.730Z,15.78
2019-04-03T04:52:31.283Z,15.98
2019-04-03T04:55:10.894Z,13.95
2019-04-03T04:57:49.479Z,15.63
2019-04-03T05:00:29.463Z,18.20
2019-04-03T05:03:07.730Z,16.65
2019-04-03T05:05:47.859Z,16.70
2019-04-03T05:08:26.511Z,18.48
2019-04-03T05:11:05.573Z,17.73
2019-04-03T05:13:46.776Z,20.82
2019-04-03T05:16:25.054Z,21.12
2019-04-03T05:19:10.685Z,21.62
2019-04-03T05:21:43.300Z,21.23
2019-04-03T05:24:21.621Z,23.57
2019-04-03T05:27:01.061Z,25.85
2019-04-03T05:29:40.374Z,20.85
2019-04-03T05:32:18.780Z,21.27
2019-04-03T05:34:59.440Z,23.38
2019-04-03T05:37:40.313Z,22.85
2019-04-03T05:40:19.093Z,21.42
2019-04-03T05:43:00.176Z,19.98
2019-04-03T05:45:41.054Z,19.80
2019-04-03T05:48:19.382Z,19.37
2019-04-03T05:50:58.542Z,20.90
2019-04-03T05:53:37.873Z,19.32
2019-04-03T05:56:17.292Z,20.60
2019-04-03T05:58:57.217Z,19.35
2019-04-03T06:01:35.986Z,16.17
2019-04-03T06:04:15.588Z,11.78
2019-04-03T06:07:01.917Z,10.25
2019-04-03T06:10:08.629Z,10.32
2019-04-03T06:13:11.209Z,9.25
2019-04-03T06:27:55.999Z,8.88
2019-04-03T06:30:35.079Z,8.75
2019-04-03T06:33:13.839Z,9.05
2019-04-03T06:35:52.083Z,8.75
2019-04-03T06:38:30.399Z,8.58
2019-04-03T06:41:09.146Z,8.75
2019-04-03T06:43:50.410Z,8.55
2019-04-03T06:46:29.084Z,8.70
2019-04-03T06:49:08.502Z,8.20
2019-04-03T06:51:48.881Z,8.28
2019-04-03T06:54:26.866Z,8.40
2019-04-03T06:57:04.603Z,9.05
2019-04-03T06:59:42.987Z,8.10
2019-04-03T07:02:22.193Z,8.90
2019-04-03T07:05:02.821Z,9.88
2019-04-03T07:07:40.619Z,8.90
2019-04-03T07:10:25.649Z,8.90
2019-04-03T07:12:59.265Z,8.78
2019-04-03T07:15:37.717Z,8.65
2019-04-03T07:18:15.916Z,8.28
2019-04-03T07:20:54.513Z,8.65
2019-04-03T07:23:32.827Z,8.25
2019-04-03T07:26:11.917Z,7.92
2019-04-03T07:28:50.865Z,7.78
2019-04-03T07:31:30.518Z,7.22
2019-04-03T07:34:09.726Z,7.35
2019-04-03T07:36:47.850Z,6.90
2019-04-03T07:39:25.631Z,7.37
2019-04-03T07:42:04.820Z,7.40
2019-04-03T07:44:43.123Z,7.00
2019-04-03T07:47:21.576Z,7.17
2019-04-03T07:49:59.958Z,7.17
2019-04-03T07:52:38.541Z,6.80
2019-04-03T07:55:16.945Z,6.47
2019-04-03T07:57:55.904Z,6.78
2019-04-03T08:00:34.355Z,6.00
2019-04-03T08:03:13.242Z,6.28
2019-04-03T08:05:54.062Z,5.47
2019-04-03T08:08:31.545Z,5.70
2019-04-03T08:11:09.335Z,6.08
2019-04-03T08:13:48.164Z,5.65
2019-04-03T08:16:26.310Z,6.00
2019-04-03T08:19:07.575Z,6.00
2019-04-03T08:21:43.996Z,6.00
2019-04-03T08:24:23.579Z,6.30
2019-04-03T08:27:02.019Z,6.33
2019-04-03T08:29:40.888Z,6.00
2019-04-03T08:32:18.960Z,6.05
2019-04-03T08:34:57.751Z,6.20
2019-04-03T08:37:36.817Z,6.62
2019-04-03T08:40:15.174Z,6.37
2019-04-03T08:42:53.449Z,6.80
2019-04-03T08:45:31.920Z,5.70
2019-04-03T08:48:09.261Z,5.85
2019-04-03T08:50:47.107Z,5.40
2019-04-03T08:53:24.891Z,5.55
2019-04-03T08:56:04.176Z,5.60
2019-04-03T08:58:42.603Z,5.35
2019-04-03T09:01:22.500Z,5.50
2019-04-03T09:04:00.885Z,5.45
2019-04-03T09:06:39.755Z,5.47
2019-04-03T09:09:18.406Z,5.80
2019-04-03T09:11:56.825Z,5.60
2019-04-03T09:14:34.898Z,4.75
2019-04-03T09:17:13.515Z,4.62
2019-04-03T09:19:51.916Z,5.47
2019-04-03T09:22:30.007Z,5.33
2019-04-03T09:25:07.711Z,4.62
2019-04-03T09:27:47.088Z,4.83
2019-04-03T09:30:27.193Z,4.33
2019-04-03T09:33:05.681Z,4.58
2019-04-03T09:35:44.075Z,4.78
2019-04-03T09:38:23.147Z,4.75
2019-04-03T09:41:02.962Z,4.60
2019-04-03T09:43:41.440Z,4.92
2019-04-03T09:46:19.255Z,5.00
2019-04-03T09:48:58.531Z,4.80
2019-04-03T09:51:37.175Z,5.22
2019-04-03T09:54:15.868Z,4.72
2019-04-03T09:57:03.010Z,4.70
2019-04-03T09:59:33.809Z,5.15
2019-04-03T10:02:12.441Z,4.83
2019-04-03T10:04:51.145Z,4.83
2019-04-03T10:07:31.175Z,5.35
2019-04-03T10:10:10.699Z,5.83
2019-04-03T10:12:49.771Z,5.90
2019-04-03T10:15:30.321Z,6.40
2019-04-03T10:18:10.131Z,6.30
2019-04-03T10:20:49.516Z,7.17
2019-04-03T10:23:29.074Z,6.78
2019-04-03T10:26:08.744Z,7.75
2019-04-03T10:28:47.787Z,7.55
2019-04-03T10:31:27.254Z,7.50
2019-04-03T10:34:05.286Z,8.30
2019-04-03T10:36:43.850Z,8.03
2019-04-03T10:39:22.134Z,7.60
2019-04-03T10:42:01.320Z,7.78
2019-04-03T10:44:40.598Z,7.40
2019-04-03T10:47:24.683Z,7.90
2019-04-03T10:49:59.087Z,8.20
2019-04-03T10:52:39.149Z,7.80
2019-04-03T10:55:18.199Z,7.35
2019-04-03T10:57:56.396Z,7.58
2019-04-03T11:00:34.813Z,7.25
2019-04-03T11:03:13.720Z,7.33
2019-04-03T11:05:51.720Z,6.95
2019-04-03T11:08:30.325Z,8.03
2019-04-03T11:11:08.495Z,7.03
2019-04-03T11:13:48.544Z,7.15
2019-04-03T11:16:27.477Z,7.78
2019-04-03T11:19:07.263Z,7.83
2019-04-03T11:21:45.563Z,7.40
2019-04-03T11:24:24.509Z,7.72
2019-04-03T11:27:02.576Z,6.97
2019-04-03T11:29:43.298Z,8.05
2019-04-03T11:32:23.274Z,8.17
2019-04-03T11:35:03.161Z,8.58
2019-04-03T11:37:41.741Z,8.45
2019-04-03T11:40:19.628Z,8.75
2019-04-03T11:42:57.849Z,8.63
2019-04-03T11:45:36.626Z,8.85
2019-04-03T11:48:17.234Z,9.13
2019-04-03T11:50:56.589Z,9.65
2019-04-03T11:53:35.991Z,10.20
2019-04-03T11:56:14.651Z,10.05
2019-04-03T11:58:53.080Z,9.70
2019-04-03T12:01:31.489Z,10.05
2019-04-03T12:04:12.574Z,9.88
2019-04-03T12:06:52.016Z,10.15
2019-04-03T12:09:32.376Z,10.45
2019-04-03T12:12:11.247Z,10.95
2019-04-03T12:14:50.139Z,10.23
2019-04-03T12:17:31.096Z,10.40
2019-04-03T12:22:48.664Z,13.28
2019-04-03T12:25:27.775Z,15.03
2019-04-03T12:28:07.350Z,15.93
2019-04-03T12:30:45.913Z,13.98
2019-04-03T12:33:28.575Z,11.93
2019-04-03T12:36:07.327Z,11.30
2019-04-03T12:38:46.649Z,10.58
2019-04-03T12:41:26.625Z,10.00
2019-04-03T12:44:05.046Z,9.88
2019-04-03T12:46:43.908Z,9.60
2019-04-03T12:49:22.916Z,10.15
2019-04-03T12:52:03.655Z,9.68
2019-04-03T12:54:43.958Z,9.48
2019-04-03T12:57:22.418Z,9.50
2019-04-03T13:00:02.465Z,9.95
2019-04-03T13:05:22.484Z,10.30
2019-04-03T13:08:00.934Z,8.48
2019-04-03T13:10:42.810Z,8.58
2019-04-03T13:13:20.810Z,10.10
2019-04-03T13:15:59.541Z,9.23
2019-04-03T13:18:37.726Z,10.18
2019-04-03T13:21:16.946Z,9.35
2019-04-03T13:23:56.233Z,10.05
2019-04-03T13:26:34.189Z,9.25
2019-04-03T13:29:12.376Z,9.08
2019-04-03T13:31:51.698Z,9.55
2019-04-03T13:34:32.383Z,9.18
2019-04-03T13:37:11.125Z,9.73
2019-04-03T13:39:49.403Z,9.55
2019-04-03T13:42:31.184Z,8.93
2019-04-03T13:45:09.359Z,9.17
2019-04-03T13:47:48.166Z,9.18
2019-04-03T13:50:27.209Z,9.10
2019-04-03T13:53:06.367Z,8.28
2019-04-03T13:55:45.051Z,8.30
2019-04-03T13:58:23.315Z,8.48
2019-04-03T14:01:03.125Z,9.48
2019-04-03T14:03:42.617Z,9.05
2019-04-03T14:06:21.271Z,8.75
2019-04-03T14:08:59.635Z,9.20
2019-04-03T14:11:38.232Z,9.38
2019-04-03T14:14:17.949Z,9.80
2019-04-03T14:16:56.506Z,10.08
2019-04-03T14:19:43.275Z,10.03
2019-04-03T14:22:14.340Z,10.78
2019-04-03T14:24:52.903Z,10.65
2019-04-03T14:27:32.015Z,9.80
2019-04-03T14:30:11.912Z,11.10
2019-04-03T14:32:52.537Z,10.98
2019-04-03T14:35:47.449Z,10.03
2019-04-03T14:38:11.925Z,10.88
2019-04-03T14:40:50.555Z,10.98
2019-04-03T14:43:28.707Z,12.25
2019-04-03T14:46:08.508Z,12.45
2019-04-03T14:48:48.467Z,12.63
2019-04-03T14:51:27.664Z,13.38
2019-04-03T14:54:08.235Z,14.15
2019-04-03T14:56:46.954Z,14.13
2019-04-03T14:59:26.002Z,13.40
2019-04-03T15:02:06.319Z,14.15
2019-04-03T15:04:44.297Z,13.80
2019-04-03T15:07:23.366Z,15.13
2019-04-03T15:10:01.481Z,14.95
2019-04-03T15:12:44.521Z,15.65
2019-04-03T15:15:22.893Z,15.55
2019-04-03T15:18:01.038Z,16.55
2019-04-03T15:20:39.169Z,16.02
2019-04-03T15:23:17.527Z,15.85
2019-04-03T15:25:55.815Z,15.45
2019-04-03T15:28:34.551Z,14.68
2019-04-03T15:31:14.302Z,16.12
2019-04-03T15:33:54.854Z,14.65
2019-04-03T15:36:34.928Z,14.95
2019-04-03T15:39:18.691Z,15.38
2019-04-03T15:41:56.713Z,14.95
2019-04-03T15:44:35.415Z,15.45
2019-04-03T15:47:17.137Z,14.73
2019-04-03T15:49:53.616Z,14.93
2019-04-03T15:52:31.841Z,15.55
2019-04-03T15:55:10.631Z,15.10
2019-04-03T15:57:50.061Z,15.78
2019-04-03T16:00:30.590Z,15.23
2019-04-03T16:03:09.513Z,15.45
2019-04-03T16:05:47.723Z,15.60
2019-04-03T16:08:26.513Z,16.12
2019-04-03T16:11:05.277Z,16.97
2019-04-03T16:13:42.902Z,18.37
2019-04-03T16:16:20.929Z,17.77
2019-04-03T16:18:59.502Z,17.27
2019-04-03T16:21:39.514Z,16.85
2019-04-03T16:24:18.009Z,16.02
2019-04-03T16:26:57.459Z,17.62
2019-04-03T16:29:36.254Z,17.45
2019-04-03T16:32:16.393Z,17.27
2019-04-03T16:34:56.951Z,16.80
2019-04-03T16:37:36.068Z,16.23
2019-04-03T16:40:17.183Z,15.28
2019-04-03T16:42:56.543Z,16.57
2019-04-03T16:45:37.215Z,16.50
2019-04-03T16:48:17.794Z,16.85
2019-04-03T16:53:33.173Z,16.07
2019-04-03T16:56:11.776Z,17.35
2019-04-03T16:58:50.118Z,15.60
2019-04-03T17:01:29.277Z,16.20
2019-04-03T17:04:09.310Z,16.20
2019-04-03T17:06:48.927Z,16.27
2019-04-03T17:09:28.113Z,26.85
2019-04-03T17:12:06.329Z,48.05
2019-04-03T17:14:44.600Z,27.65
2019-04-03T17:17:22.693Z,16.42
2019-04-03T17:20:01.015Z,17.27
2019-04-03T17:22:40.907Z,16.00
2019-04-03T17:25:19.746Z,16.12
2019-04-03T17:27:59.424Z,17.05
2019-04-03T17:30:38.219Z,16.62
2019-04-03T17:33:16.131Z,16.45
2019-04-03T17:35:54.829Z,16.00
2019-04-03T17:38:34.581Z,16.35
2019-04-03T17:41:14.860Z,15.43
2019-04-03T17:43:54.233Z,16.20
2019-04-03T17:46:35.748Z,15.83
2019-04-03T17:49:14.915Z,15.55
2019-04-03T17:51:54.566Z,15.88
2019-04-03T17:54:32.711Z,16.87
2019-04-03T17:57:11.908Z,17.10
2019-04-03T17:59:51.211Z,18.15
2019-04-03T18:02:31.882Z,19.10
2019-04-03T18:05:10.695Z,19.95
2019-04-03T18:07:50.330Z,19.37
2019-04-03T18:10:30.622Z,19.07
2019-04-03T18:13:09.349Z,18.98
2019-04-03T18:15:47.759Z,19.45
2019-04-03T18:18:26.825Z,18.87
2019-04-03T18:21:12.943Z,17.50
2019-04-03T18:23:52.671Z,18.70
2019-04-03T18:26:32.460Z,19.85
2019-04-03T18:29:11.537Z,17.90
2019-04-03T18:31:50.331Z,18.73
2019-04-03T18:34:28.371Z,18.12
2019-04-03T18:37:07.408Z,17.92
2019-04-03T18:39:46.883Z,18.17
2019-04-03T18:42:25.802Z,16.52
2019-04-03T18:45:04.220Z,18.75
2019-04-03T18:47:45.895Z,17.82
2019-04-03T18:50:23.057Z,17.70
2019-04-03T18:53:01.044Z,17.12
2019-04-03T18:55:39.562Z,18.75
2019-04-03T18:58:17.965Z,17.85
2019-04-03T19:00:56.630Z,16.20
2019-04-03T19:03:35.026Z,16.60
2019-04-03T19:06:14.109Z,18.10
2019-04-03T19:08:52.298Z,16.97
2019-04-03T19:11:34.148Z,18.70
2019-04-03T19:14:12.004Z,19.17
2019-04-03T19:16:52.827Z,19.70
2019-04-03T19:19:29.967Z,21.23
2019-04-03T19:22:09.041Z,20.85
2019-04-03T19:24:47.101Z,24.12
2019-04-03T19:27:25.137Z,24.70
2019-04-03T19:30:06.755Z,26.20
2019-04-03T19:32:44.790Z,27.80
2019-04-03T19:35:22.856Z,28.67
2019-04-03T19:38:01.125Z,30.15
2019-04-03T19:40:41.144Z,34.75
2019-04-03T19:43:20.334Z,50.48
2019-04-03T19:45:59.525Z,53.33
2019-04-03T19:48:38.609Z,49.05
2019-04-03T19:51:16.853Z,44.08
2019-04-03T19:53:59.603Z,37.85
2019-04-03T19:56:35.486Z,34.65
2019-04-03T19:59:13.595Z,33.25
2019-04-03T20:01:51.444Z,31.40
2019-04-03T20:04:29.846Z,29.42
2019-04-03T20:07:07.369Z,29.25
2019-04-03T20:09:45.906Z,30.17
2019-04-03T20:12:24.051Z,29.70
2019-04-03T20:15:02.722Z,29.72
2019-04-03T20:17:41.446Z,29.27
2019-04-03T20:20:19.515Z,29.90
2019-04-03T20:22:57.675Z,30.62
2019-04-03T20:25:39.898Z,29.75
2019-04-03T20:28:18.523Z,29.25
2019-04-03T20:30:57.367Z,29.63
2019-04-03T20:33:35.498Z,28.77
2019-04-03T20:36:16.462Z,29.95
2019-04-03T20:38:53.470Z,29.52
2019-04-03T20:41:32.945Z,30.95
2019-04-03T20:44:12.005Z,32.08
2019-04-03T20:46:50.979Z,32.38
2019-04-03T20:49:29.933Z,33.08
2019-04-03T20:52:10.874Z,32.53
2019-04-03T20:54:47.920Z,31.27
2019-04-03T20:57:27.794Z,31.15
2019-04-03T21:00:06.258Z,31.12
2019-04-03T21:02:45.983Z,31.30
2019-04-03T21:05:24.490Z,32.40
2019-04-03T21:08:03.751Z,31.80
2019-04-03T21:10:42.167Z,32.50
2019-04-03T21:13:20.311Z,30.90
2019-04-03T21:15:58.395Z,32.63
2019-04-03T21:18:37.345Z,31.75
2019-04-03T21:21:17.010Z,29.82
2019-04-03T21:23:55.432Z,32.17
2019-04-03T21:26:33.521Z,30.57
2019-04-03T21:29:12.588Z,30.15
2019-04-03T21:31:50.325Z,31.05
2019-04-03T21:34:28.458Z,32.58
2019-04-03T21:37:07.637Z,32.13
2019-04-03T21:39:47.457Z,32.53
2019-04-03T21:42:26.981Z,33.30
2019-04-03T21:45:07.577Z,32.67
2019-04-03T21:47:45.550Z,32.90
2019-04-03T21:50:24.621Z,32.90
2019-04-03T21:53:04.075Z,33.25
2019-04-03T21:55:42.659Z,32.03
2019-04-03T21:58:21.984Z,33.05
2019-04-03T22:01:28.421Z,32.98
2019-04-03T22:04:06.365Z,35.73
2019-04-03T22:06:44.539Z,34.95
2019-04-03T22:09:22.437Z,34.65
2019-04-03T22:12:00.823Z,34.03
2019-04-03T22:14:38.839Z,36.48
2019-04-03T22:17:17.192Z,34.10
2019-04-03T22:19:58.303Z,34.90
2019-04-03T22:22:35.632Z,32.80
2019-04-03T22:25:14.791Z,35.65
2019-04-03T22:27:53.280Z,35.58
2019-04-03T22:30:31.233Z,35.80
2019-04-03T22:33:10.346Z,36.15
2019-04-03T22:35:48.491Z,35.15
2019-04-03T22:38:28.415Z,36.73
2019-04-03T22:41:07.040Z,35.52
2019-04-03T22:43:46.653Z,35.90
2019-04-03T22:46:24.692Z,35.58
2019-04-03T22:49:03.180Z,35.88
2019-04-03T22:51:41.768Z,36.28
2019-04-03T22:54:20.873Z,36.15
2019-04-03T22:57:00.324Z,35.65
2019-04-03T22:59:39.365Z,35.30
2019-04-03T23:02:17.539Z,36.20
2019-04-03T23:04:56.761Z,35.75
2019-04-03T23:07:34.955Z,36.08
2019-04-03T23:10:13.248Z,36.90
2019-04-03T23:12:51.098Z,37.98
2019-04-03T23:15:30.307Z,35.65
2019-04-03T23:18:08.456Z,36.30
2019-04-03T23:20:46.050Z,35.43
2019-04-03T23:23:27.099Z,34.30
2019-04-03T23:26:04.780Z,35.88
2019-04-03T23:28:44.045Z,37.03
2019-04-03T23:31:22.336Z,38.88
2019-04-03T23:34:00.695Z,39.35
2019-04-03T23:36:39.689Z,37.42
2019-04-03T23:39:17.945Z,38.15
2019-04-03T23:41:56.621Z,39.10
2019-04-03T23:44:35.539Z,37.80
2019-04-03T23:47:15.084Z,37.25
2019-04-03T23:49:54.513Z,38.90
2019-04-03T23:52:32.685Z,38.10
2019-04-03T23:55:10.702Z,39.38
2019-04-03T23:57:49.701Z,39.75
